sensor_id;sensor_type;location;lat;lon;timestamp;P1;durP1;ratioP1;P2;durP2;ratioP2
27566;SDS011;15006;48.584;9.186;2023-02-28T00:01:23;4.15;;;3.78;;
27566;SDS011;15006;48.584;9.186;2023-02-28T00:03:52;4.10;;;3.75;;
27566;SDS011;15006;48.584;9.186;2023-02-28T00:06:21;4.60;;;4.13;;
27566;SDS011;15006;48.584;9.186;2023-02-28T00:08:50;4.22;;;3.92;;
27566;SDS011;15006;48.584;9.186;2023-02-28T00:11:19;4.57;;;4.28;;
27566;SDS011;15006;48.584;9.186;2023-02-28T00:13:47;4.43;;;4.05;;
27566;SDS011;15006;48.584;9.186;2023-02-28T00:16:17;4.72;;;4.32;;
27566;SDS011;15006;48.584;9.186;2023-02-28T00:18:47;4.47;;;4.07;;
27566;SDS011;15006;48.584;9.186;2023-02-28T00:21:16;4.03;;;3.72;;
27566;SDS011;15006;48.584;9.186;2023-02-28T00:23:45;5.03;;;3.55;;
27566;SDS011;15006;48.584;9.186;2023-02-28T00:26:14;4.40;;;4.03;;
27566;SDS011;15006;48.584;9.186;2023-02-28T00:28:43;4.18;;;3.88;;
27566;SDS011;15006;48.584;9.186;2023-02-28T00:31:11;4.55;;;4.05;;
27566;SDS011;15006;48.584;9.186;2023-02-28T00:33:39;4.65;;;4.25;;
27566;SDS011;15006;48.584;9.186;2023-02-28T00:36:08;5.63;;;4.22;;
27566;SDS011;15006;48.584;9.186;2023-02-28T00:38:39;6.25;;;4.50;;
27566;SDS011;15006;48.584;9.186;2023-02-28T00:41:08;3.37;;;3.17;;
27566;SDS011;15006;48.584;9.186;2023-02-28T00:43:37;4.78;;;3.80;;
27566;SDS011;15006;48.584;9.186;2023-02-28T00:46:06;4.78;;;3.92;;
27566;SDS011;15006;48.584;9.186;2023-02-28T00:48:35;5.32;;;4.20;;
27566;SDS011;15006;48.584;9.186;2023-02-28T00:51:03;4.35;;;3.88;;
27566;SDS011;15006;48.584;9.186;2023-02-28T00:53:34;4.75;;;4.28;;
27566;SDS011;15006;48.584;9.186;2023-02-28T00:56:00;7.15;;;4.30;;
27566;SDS011;15006;48.584;9.186;2023-02-28T00:58:27;4.35;;;4.05;;
27566;SDS011;15006;48.584;9.186;2023-02-28T01:00:54;4.63;;;4.22;;
27566;SDS011;15006;48.584;9.186;2023-02-28T01:03:20;4.75;;;4.28;;
27566;SDS011;15006;48.584;9.186;2023-02-28T01:05:47;4.88;;;3.58;;
27566;SDS011;15006;48.584;9.186;2023-02-28T01:08:13;4.30;;;3.80;;
27566;SDS011;15006;48.584;9.186;2023-02-28T01:10:40;6.07;;;4.45;;
27566;SDS011;15006;48.584;9.186;2023-02-28T01:13:07;4.45;;;4.15;;
27566;SDS011;15006;48.584;9.186;2023-02-28T01:15:33;4.72;;;4.32;;
27566;SDS011;15006;48.584;9.186;2023-02-28T01:17:59;4.45;;;4.05;;
27566;SDS011;15006;48.584;9.186;2023-02-28T01:20:25;4.18;;;3.78;;
27566;SDS011;15006;48.584;9.186;2023-02-28T01:22:51;4.63;;;4.32;;
27566;SDS011;15006;48.584;9.186;2023-02-28T01:25:17;5.65;;;4.10;;
27566;SDS011;15006;48.584;9.186;2023-02-28T01:27:43;4.47;;;4.18;;
27566;SDS011;15006;48.584;9.186;2023-02-28T01:30:09;4.05;;;3.75;;
27566;SDS011;15006;48.584;9.186;2023-02-28T01:32:36;4.20;;;3.78;;
27566;SDS011;15006;48.584;9.186;2023-02-28T01:35:02;3.97;;;3.67;;
27566;SDS011;15006;48.584;9.186;2023-02-28T01:37:29;4.07;;;3.78;;
27566;SDS011;15006;48.584;9.186;2023-02-28T01:39:56;4.13;;;3.75;;
27566;SDS011;15006;48.584;9.186;2023-02-28T01:42:22;4.20;;;3.80;;
27566;SDS011;15006;48.584;9.186;2023-02-28T01:47:52;6.28;;;4.47;;
27566;SDS011;15006;48.584;9.186;2023-02-28T01:50:28;6.10;;;4.45;;
27566;SDS011;15006;48.584;9.186;2023-02-28T01:53:00;4.43;;;4.03;;
27566;SDS011;15006;48.584;9.186;2023-02-28T01:55:30;4.30;;;3.92;;
27566;SDS011;15006;48.584;9.186;2023-02-28T01:57:58;3.95;;;3.65;;
27566;SDS011;15006;48.584;9.186;2023-02-28T02:00:28;4.60;;;4.25;;
27566;SDS011;15006;48.584;9.186;2023-02-28T02:02:57;5.65;;;4.20;;
27566;SDS011;15006;48.584;9.186;2023-02-28T02:05:39;4.65;;;4.10;;
27566;SDS011;15006;48.584;9.186;2023-02-28T02:08:26;5.07;;;4.35;;
27566;SDS011;15006;48.584;9.186;2023-02-28T02:11:00;4.78;;;4.32;;
27566;SDS011;15006;48.584;9.186;2023-02-28T02:16:42;4.63;;;4.32;;
27566;SDS011;15006;48.584;9.186;2023-02-28T02:40:00;4.82;;;4.43;;
27566;SDS011;15006;48.584;9.186;2023-02-28T02:42:52;6.10;;;4.53;;
27566;SDS011;15006;48.584;9.186;2023-02-28T02:45:34;3.70;;;3.45;;
27566;SDS011;15006;48.584;9.186;2023-02-28T02:48:05;6.03;;;4.95;;
27566;SDS011;15006;48.584;9.186;2023-02-28T02:50:41;5.93;;;5.25;;
27566;SDS011;15006;48.584;9.186;2023-02-28T02:53:11;5.57;;;5.03;;
27566;SDS011;15006;48.584;9.186;2023-02-28T02:55:41;5.05;;;4.53;;
27566;SDS011;15006;48.584;9.186;2023-02-28T02:58:16;5.25;;;4.75;;
27566;SDS011;15006;48.584;9.186;2023-02-28T03:00:49;5.13;;;4.68;;
27566;SDS011;15006;48.584;9.186;2023-02-28T03:03:21;9.40;;;5.80;;
27566;SDS011;15006;48.584;9.186;2023-02-28T03:05:55;5.68;;;5.20;;
27566;SDS011;15006;48.584;9.186;2023-02-28T03:08:23;6.07;;;5.28;;
27566;SDS011;15006;48.584;9.186;2023-02-28T03:10:50;5.88;;;5.28;;
27566;SDS011;15006;48.584;9.186;2023-02-28T03:13:30;10.27;;;5.10;;
27566;SDS011;15006;48.584;9.186;2023-02-28T03:19:04;5.93;;;5.43;;
27566;SDS011;15006;48.584;9.186;2023-02-28T03:22:12;5.82;;;5.30;;
27566;SDS011;15006;48.584;9.186;2023-02-28T03:28:00;6.03;;;5.35;;
27566;SDS011;15006;48.584;9.186;2023-02-28T03:30:54;6.30;;;5.10;;
27566;SDS011;15006;48.584;9.186;2023-02-28T03:33:55;5.90;;;5.40;;
27566;SDS011;15006;48.584;9.186;2023-02-28T03:36:37;7.78;;;5.78;;
27566;SDS011;15006;48.584;9.186;2023-02-28T03:39:31;6.03;;;5.32;;
27566;SDS011;15006;48.584;9.186;2023-02-28T03:42:12;5.85;;;5.25;;
27566;SDS011;15006;48.584;9.186;2023-02-28T03:44:48;5.65;;;5.22;;
27566;SDS011;15006;48.584;9.186;2023-02-28T03:47:30;6.75;;;5.63;;
27566;SDS011;15006;48.584;9.186;2023-02-28T03:52:34;6.38;;;5.78;;
27566;SDS011;15006;48.584;9.186;2023-02-28T03:55:10;7.75;;;6.05;;
27566;SDS011;15006;48.584;9.186;2023-02-28T04:00:20;6.78;;;6.10;;
27566;SDS011;15006;48.584;9.186;2023-02-28T04:02:53;6.07;;;5.47;;
27566;SDS011;15006;48.584;9.186;2023-02-28T04:05:21;6.30;;;5.78;;
27566;SDS011;15006;48.584;9.186;2023-02-28T04:07:47;6.43;;;5.90;;
27566;SDS011;15006;48.584;9.186;2023-02-28T04:10:15;6.07;;;5.32;;
27566;SDS011;15006;48.584;9.186;2023-02-28T04:12:45;6.40;;;5.80;;
27566;SDS011;15006;48.584;9.186;2023-02-28T04:15:11;7.28;;;6.30;;
27566;SDS011;15006;48.584;9.186;2023-02-28T04:17:37;6.38;;;5.80;;
27566;SDS011;15006;48.584;9.186;2023-02-28T04:20:03;5.97;;;5.50;;
27566;SDS011;15006;48.584;9.186;2023-02-28T04:22:34;8.38;;;6.00;;
27566;SDS011;15006;48.584;9.186;2023-02-28T04:25:01;6.22;;;5.63;;
27566;SDS011;15006;48.584;9.186;2023-02-28T04:27:27;6.90;;;6.18;;
27566;SDS011;15006;48.584;9.186;2023-02-28T04:29:53;9.02;;;6.40;;
27566;SDS011;15006;48.584;9.186;2023-02-28T04:32:19;6.55;;;5.68;;
27566;SDS011;15006;48.584;9.186;2023-02-28T04:34:44;6.80;;;6.10;;
27566;SDS011;15006;48.584;9.186;2023-02-28T04:37:10;6.72;;;6.22;;
27566;SDS011;15006;48.584;9.186;2023-02-28T04:39:36;7.18;;;6.55;;
27566;SDS011;15006;48.584;9.186;2023-02-28T04:42:03;8.40;;;6.25;;
27566;SDS011;15006;48.584;9.186;2023-02-28T04:44:29;6.82;;;6.22;;
27566;SDS011;15006;48.584;9.186;2023-02-28T04:46:55;9.63;;;7.00;;
27566;SDS011;15006;48.584;9.186;2023-02-28T04:49:21;6.95;;;6.28;;
27566;SDS011;15006;48.584;9.186;2023-02-28T04:51:47;7.60;;;6.13;;
27566;SDS011;15006;48.584;9.186;2023-02-28T04:54:15;8.30;;;6.70;;
27566;SDS011;15006;48.584;9.186;2023-02-28T04:56:43;7.03;;;6.43;;
27566;SDS011;15006;48.584;9.186;2023-02-28T04:59:09;7.25;;;6.65;;
27566;SDS011;15006;48.584;9.186;2023-02-28T05:01:35;7.85;;;6.78;;
27566;SDS011;15006;48.584;9.186;2023-02-28T05:04:02;7.70;;;7.00;;
27566;SDS011;15006;48.584;9.186;2023-02-28T05:06:30;7.10;;;6.50;;
27566;SDS011;15006;48.584;9.186;2023-02-28T05:08:58;7.35;;;6.55;;
27566;SDS011;15006;48.584;9.186;2023-02-28T05:11:32;8.52;;;7.63;;
27566;SDS011;15006;48.584;9.186;2023-02-28T05:14:04;8.77;;;6.68;;
27566;SDS011;15006;48.584;9.186;2023-02-28T05:16:34;8.50;;;7.57;;
27566;SDS011;15006;48.584;9.186;2023-02-28T05:19:00;8.77;;;7.82;;
27566;SDS011;15006;48.584;9.186;2023-02-28T05:21:27;8.10;;;6.93;;
27566;SDS011;15006;48.584;9.186;2023-02-28T05:24:03;9.35;;;7.60;;
27566;SDS011;15006;48.584;9.186;2023-02-28T05:26:36;8.00;;;7.30;;
27566;SDS011;15006;48.584;9.186;2023-02-28T05:29:04;7.88;;;7.07;;
27566;SDS011;15006;48.584;9.186;2023-02-28T05:31:30;8.65;;;7.82;;
27566;SDS011;15006;48.584;9.186;2023-02-28T05:33:57;7.93;;;7.22;;
27566;SDS011;15006;48.584;9.186;2023-02-28T05:36:23;8.57;;;7.75;;
27566;SDS011;15006;48.584;9.186;2023-02-28T05:38:49;8.95;;;7.72;;
27566;SDS011;15006;48.584;9.186;2023-02-28T05:41:17;8.93;;;7.28;;
27566;SDS011;15006;48.584;9.186;2023-02-28T05:43:45;8.23;;;7.50;;
27566;SDS011;15006;48.584;9.186;2023-02-28T05:46:11;9.80;;;7.90;;
27566;SDS011;15006;48.584;9.186;2023-02-28T05:48:38;8.88;;;7.78;;
27566;SDS011;15006;48.584;9.186;2023-02-28T05:51:07;9.30;;;8.40;;
27566;SDS011;15006;48.584;9.186;2023-02-28T05:53:34;8.82;;;7.95;;
27566;SDS011;15006;48.584;9.186;2023-02-28T05:56:01;9.15;;;8.23;;
27566;SDS011;15006;48.584;9.186;2023-02-28T05:58:27;9.27;;;8.27;;
27566;SDS011;15006;48.584;9.186;2023-02-28T06:00:59;9.98;;;8.13;;
27566;SDS011;15006;48.584;9.186;2023-02-28T06:03:26;9.23;;;8.25;;
27566;SDS011;15006;48.584;9.186;2023-02-28T06:05:53;9.70;;;8.25;;
27566;SDS011;15006;48.584;9.186;2023-02-28T06:08:19;9.48;;;7.97;;
27566;SDS011;15006;48.584;9.186;2023-02-28T06:10:45;9.18;;;8.23;;
27566;SDS011;15006;48.584;9.186;2023-02-28T06:13:11;11.43;;;8.68;;
27566;SDS011;15006;48.584;9.186;2023-02-28T06:15:38;11.20;;;8.88;;
27566;SDS011;15006;48.584;9.186;2023-02-28T06:18:04;10.25;;;9.10;;
27566;SDS011;15006;48.584;9.186;2023-02-28T06:20:30;11.00;;;9.23;;
27566;SDS011;15006;48.584;9.186;2023-02-28T06:22:57;10.27;;;8.68;;
27566;SDS011;15006;48.584;9.186;2023-02-28T06:25:24;12.65;;;9.05;;
27566;SDS011;15006;48.584;9.186;2023-02-28T06:27:52;10.07;;;9.07;;
27566;SDS011;15006;48.584;9.186;2023-02-28T06:30:19;10.30;;;8.85;;
27566;SDS011;15006;48.584;9.186;2023-02-28T06:32:50;10.82;;;8.98;;
27566;SDS011;15006;48.584;9.186;2023-02-28T06:35:17;9.40;;;8.50;;
27566;SDS011;15006;48.584;9.186;2023-02-28T06:37:44;12.13;;;9.40;;
27566;SDS011;15006;48.584;9.186;2023-02-28T06:40:10;12.20;;;9.70;;
27566;SDS011;15006;48.584;9.186;2023-02-28T06:42:38;10.20;;;9.27;;
27566;SDS011;15006;48.584;9.186;2023-02-28T06:45:04;10.88;;;9.18;;
27566;SDS011;15006;48.584;9.186;2023-02-28T06:47:34;14.23;;;10.15;;
27566;SDS011;15006;48.584;9.186;2023-02-28T06:50:02;10.50;;;9.18;;
27566;SDS011;15006;48.584;9.186;2023-02-28T06:52:30;11.27;;;9.82;;
27566;SDS011;15006;48.584;9.186;2023-02-28T06:54:56;9.88;;;8.93;;
27566;SDS011;15006;48.584;9.186;2023-02-28T06:57:29;13.70;;;9.57;;
27566;SDS011;15006;48.584;9.186;2023-02-28T06:59:59;11.23;;;10.02;;
27566;SDS011;15006;48.584;9.186;2023-02-28T07:02:28;15.35;;;11.00;;
27566;SDS011;15006;48.584;9.186;2023-02-28T07:04:54;10.57;;;9.48;;
27566;SDS011;15006;48.584;9.186;2023-02-28T07:07:20;18.58;;;10.68;;
27566;SDS011;15006;48.584;9.186;2023-02-28T07:09:46;16.20;;;10.75;;
27566;SDS011;15006;48.584;9.186;2023-02-28T07:12:12;10.80;;;9.70;;
27566;SDS011;15006;48.584;9.186;2023-02-28T07:14:38;13.85;;;10.18;;
27566;SDS011;15006;48.584;9.186;2023-02-28T07:17:06;12.88;;;10.85;;
27566;SDS011;15006;48.584;9.186;2023-02-28T07:19:33;11.00;;;9.88;;
27566;SDS011;15006;48.584;9.186;2023-02-28T07:21:59;11.73;;;10.23;;
27566;SDS011;15006;48.584;9.186;2023-02-28T07:24:27;12.00;;;10.70;;
27566;SDS011;15006;48.584;9.186;2023-02-28T07:26:53;11.15;;;10.07;;
27566;SDS011;15006;48.584;9.186;2023-02-28T07:29:19;14.30;;;10.57;;
27566;SDS011;15006;48.584;9.186;2023-02-28T07:31:45;11.15;;;10.02;;
27566;SDS011;15006;48.584;9.186;2023-02-28T07:34:12;14.90;;;10.32;;
27566;SDS011;15006;48.584;9.186;2023-02-28T07:36:39;11.35;;;9.82;;
27566;SDS011;15006;48.584;9.186;2023-02-28T07:39:05;15.82;;;10.85;;
27566;SDS011;15006;48.584;9.186;2023-02-28T07:41:31;11.05;;;9.95;;
27566;SDS011;15006;48.584;9.186;2023-02-28T07:43:59;12.45;;;10.32;;
27566;SDS011;15006;48.584;9.186;2023-02-28T07:46:26;13.30;;;10.45;;
27566;SDS011;15006;48.584;9.186;2023-02-28T07:48:52;12.10;;;10.27;;
27566;SDS011;15006;48.584;9.186;2023-02-28T07:51:19;14.90;;;10.95;;
27566;SDS011;15006;48.584;9.186;2023-02-28T07:53:47;11.90;;;10.65;;
27566;SDS011;15006;48.584;9.186;2023-02-28T07:56:13;12.32;;;10.40;;
27566;SDS011;15006;48.584;9.186;2023-02-28T07:58:39;12.85;;;11.27;;
27566;SDS011;15006;48.584;9.186;2023-02-28T08:01:07;12.13;;;10.68;;
27566;SDS011;15006;48.584;9.186;2023-02-28T08:03:35;14.40;;;11.32;;
27566;SDS011;15006;48.584;9.186;2023-02-28T08:06:05;12.20;;;10.90;;
27566;SDS011;15006;48.584;9.186;2023-02-28T08:08:33;12.70;;;11.13;;
27566;SDS011;15006;48.584;9.186;2023-02-28T08:11:01;12.25;;;10.45;;
27566;SDS011;15006;48.584;9.186;2023-02-28T08:13:29;15.00;;;10.75;;
27566;SDS011;15006;48.584;9.186;2023-02-28T08:15:55;14.60;;;11.40;;
27566;SDS011;15006;48.584;9.186;2023-02-28T08:18:22;13.80;;;12.00;;
27566;SDS011;15006;48.584;9.186;2023-02-28T08:20:48;14.73;;;11.25;;
27566;SDS011;15006;48.584;9.186;2023-02-28T08:23:15;14.00;;;11.30;;
27566;SDS011;15006;48.584;9.186;2023-02-28T08:25:41;14.82;;;11.43;;
27566;SDS011;15006;48.584;9.186;2023-02-28T08:28:07;13.25;;;11.85;;
27566;SDS011;15006;48.584;9.186;2023-02-28T08:30:32;12.93;;;11.63;;
27566;SDS011;15006;48.584;9.186;2023-02-28T08:32:59;15.13;;;12.00;;
27566;SDS011;15006;48.584;9.186;2023-02-28T08:35:27;15.88;;;12.10;;
27566;SDS011;15006;48.584;9.186;2023-02-28T08:37:53;15.75;;;12.48;;
27566;SDS011;15006;48.584;9.186;2023-02-28T08:40:19;16.48;;;11.85;;
27566;SDS011;15006;48.584;9.186;2023-02-28T08:42:45;14.15;;;12.43;;
27566;SDS011;15006;48.584;9.186;2023-02-28T08:45:13;14.80;;;11.93;;
27566;SDS011;15006;48.584;9.186;2023-02-28T08:47:40;13.88;;;12.23;;
27566;SDS011;15006;48.584;9.186;2023-02-28T08:50:07;14.50;;;11.57;;
27566;SDS011;15006;48.584;9.186;2023-02-28T08:52:34;15.43;;;11.68;;
27566;SDS011;15006;48.584;9.186;2023-02-28T08:55:00;16.13;;;11.65;;
27566;SDS011;15006;48.584;9.186;2023-02-28T08:57:26;15.95;;;12.35;;
27566;SDS011;15006;48.584;9.186;2023-02-28T08:59:52;13.77;;;11.77;;
27566;SDS011;15006;48.584;9.186;2023-02-28T09:02:18;16.13;;;11.95;;
27566;SDS011;15006;48.584;9.186;2023-02-28T09:04:45;14.35;;;11.75;;
27566;SDS011;15006;48.584;9.186;2023-02-28T09:07:11;14.48;;;11.70;;
27566;SDS011;15006;48.584;9.186;2023-02-28T09:09:37;14.60;;;12.30;;
27566;SDS011;15006;48.584;9.186;2023-02-28T09:14:48;14.25;;;11.75;;
27566;SDS011;15006;48.584;9.186;2023-02-28T09:17:14;14.40;;;12.10;;
27566;SDS011;15006;48.584;9.186;2023-02-28T09:19:40;14.00;;;11.80;;
27566;SDS011;15006;48.584;9.186;2023-02-28T09:22:07;13.93;;;11.63;;
27566;SDS011;15006;48.584;9.186;2023-02-28T09:24:35;12.70;;;11.38;;
27566;SDS011;15006;48.584;9.186;2023-02-28T09:27:02;15.23;;;12.35;;
27566;SDS011;15006;48.584;9.186;2023-02-28T09:29:29;14.93;;;13.15;;
27566;SDS011;15006;48.584;9.186;2023-02-28T09:31:56;14.77;;;12.00;;
27566;SDS011;15006;48.584;9.186;2023-02-28T09:34:24;12.52;;;10.82;;
27566;SDS011;15006;48.584;9.186;2023-02-28T09:36:51;13.35;;;11.85;;
27566;SDS011;15006;48.584;9.186;2023-02-28T09:39:20;12.60;;;11.35;;
27566;SDS011;15006;48.584;9.186;2023-02-28T09:41:48;14.32;;;11.77;;
27566;SDS011;15006;48.584;9.186;2023-02-28T09:44:20;15.63;;;11.70;;
27566;SDS011;15006;48.584;9.186;2023-02-28T09:47:32;13.15;;;11.65;;
27566;SDS011;15006;48.584;9.186;2023-02-28T09:50:17;13.48;;;11.70;;
27566;SDS011;15006;48.584;9.186;2023-02-28T09:52:58;12.95;;;11.45;;
27566;SDS011;15006;48.584;9.186;2023-02-28T09:58:30;12.55;;;10.80;;
27566;SDS011;15006;48.584;9.186;2023-02-28T10:01:08;13.68;;;11.48;;
27566;SDS011;15006;48.584;9.186;2023-02-28T10:04:03;15.02;;;11.85;;
27566;SDS011;15006;48.584;9.186;2023-02-28T10:06:42;13.13;;;11.60;;
27566;SDS011;15006;48.584;9.186;2023-02-28T10:09:18;12.73;;;11.32;;
27566;SDS011;15006;48.584;9.186;2023-02-28T10:11:51;12.18;;;10.93;;
27566;SDS011;15006;48.584;9.186;2023-02-28T10:14:21;12.40;;;11.18;;
27566;SDS011;15006;48.584;9.186;2023-02-28T10:16:56;12.32;;;10.98;;
27566;SDS011;15006;48.584;9.186;2023-02-28T10:19:30;14.10;;;10.80;;
27566;SDS011;15006;48.584;9.186;2023-02-28T10:24:41;12.18;;;11.00;;
27566;SDS011;15006;48.584;9.186;2023-02-28T10:27:20;14.68;;;11.82;;
27566;SDS011;15006;48.584;9.186;2023-02-28T10:29:52;12.60;;;11.30;;
27566;SDS011;15006;48.584;9.186;2023-02-28T10:32:34;12.70;;;11.18;;
27566;SDS011;15006;48.584;9.186;2023-02-28T10:35:45;14.48;;;11.57;;
27566;SDS011;15006;48.584;9.186;2023-02-28T10:37:53;16.00;;;11.65;;
27566;SDS011;15006;48.584;9.186;2023-02-28T10:42:58;12.38;;;11.15;;
27566;SDS011;15006;48.584;9.186;2023-02-28T10:45:31;12.77;;;11.48;;
27566;SDS011;15006;48.584;9.186;2023-02-28T10:48:02;15.90;;;11.13;;
27566;SDS011;15006;48.584;9.186;2023-02-28T10:55:59;12.27;;;10.98;;
27566;SDS011;15006;48.584;9.186;2023-02-28T11:01:15;11.65;;;10.55;;
27566;SDS011;15006;48.584;9.186;2023-02-28T11:03:59;11.15;;;10.05;;
27566;SDS011;15006;48.584;9.186;2023-02-28T11:06:32;11.13;;;10.13;;
27566;SDS011;15006;48.584;9.186;2023-02-28T11:09:02;10.80;;;9.73;;
27566;SDS011;15006;48.584;9.186;2023-02-28T11:11:54;11.82;;;10.63;;
27566;SDS011;15006;48.584;9.186;2023-02-28T11:14:24;11.60;;;10.40;;
27566;SDS011;15006;48.584;9.186;2023-02-28T11:16:54;11.73;;;10.55;;
27566;SDS011;15006;48.584;9.186;2023-02-28T11:19:33;11.85;;;10.68;;
27566;SDS011;15006;48.584;9.186;2023-02-28T11:22:06;10.88;;;9.77;;
27566;SDS011;15006;48.584;9.186;2023-02-28T11:24:36;11.65;;;10.45;;
27566;SDS011;15006;48.584;9.186;2023-02-28T11:27:24;18.70;;;10.25;;
27566;SDS011;15006;48.584;9.186;2023-02-28T11:29:59;11.70;;;10.60;;
27566;SDS011;15006;48.584;9.186;2023-02-28T11:32:26;11.57;;;10.35;;
27566;SDS011;15006;48.584;9.186;2023-02-28T11:37:36;12.57;;;10.27;;
27566;SDS011;15006;48.584;9.186;2023-02-28T11:40:13;11.32;;;10.23;;
27566;SDS011;15006;48.584;9.186;2023-02-28T11:42:58;12.32;;;11.13;;
27566;SDS011;15006;48.584;9.186;2023-02-28T11:45:52;12.10;;;10.63;;
27566;SDS011;15006;48.584;9.186;2023-02-28T11:51:24;12.35;;;10.30;;
27566;SDS011;15006;48.584;9.186;2023-02-28T12:03:13;10.88;;;9.50;;
27566;SDS011;15006;48.584;9.186;2023-02-28T12:05:47;11.20;;;9.40;;
27566;SDS011;15006;48.584;9.186;2023-02-28T12:08:40;9.98;;;9.02;;
27566;SDS011;15006;48.584;9.186;2023-02-28T12:11:19;28.15;;;18.63;;
27566;SDS011;15006;48.584;9.186;2023-02-28T12:14:35;8.95;;;8.25;;
27566;SDS011;15006;48.584;9.186;2023-02-28T12:20:05;8.68;;;8.00;;
27566;SDS011;15006;48.584;9.186;2023-02-28T12:29:17;8.60;;;7.82;;
27566;SDS011;15006;48.584;9.186;2023-02-28T12:34:55;7.63;;;7.07;;
27566;SDS011;15006;48.584;9.186;2023-02-28T12:37:34;9.80;;;9.02;;
27566;SDS011;15006;48.584;9.186;2023-02-28T12:40:06;8.15;;;7.55;;
27566;SDS011;15006;48.584;9.186;2023-02-28T12:42:45;8.30;;;7.70;;
27566;SDS011;15006;48.584;9.186;2023-02-28T12:45:39;8.13;;;7.32;;
27566;SDS011;15006;48.584;9.186;2023-02-28T12:49:11;7.43;;;6.82;;
27566;SDS011;15006;48.584;9.186;2023-02-28T12:51:36;7.55;;;6.85;;
27566;SDS011;15006;48.584;9.186;2023-02-28T12:56:44;7.47;;;6.88;;
27566;SDS011;15006;48.584;9.186;2023-02-28T13:07:31;7.53;;;7.03;;
27566;SDS011;15006;48.584;9.186;2023-02-28T13:10:39;7.30;;;6.80;;
27566;SDS011;15006;48.584;9.186;2023-02-28T13:13:19;6.95;;;6.47;;
27566;SDS011;15006;48.584;9.186;2023-02-28T13:15:56;6.97;;;6.53;;
27566;SDS011;15006;48.584;9.186;2023-02-28T13:18:33;7.18;;;6.40;;
27566;SDS011;15006;48.584;9.186;2023-02-28T13:21:08;7.32;;;6.88;;
27566;SDS011;15006;48.584;9.186;2023-02-28T13:26:22;7.78;;;7.18;;
27566;SDS011;15006;48.584;9.186;2023-02-28T13:34:33;7.82;;;7.22;;
27566;SDS011;15006;48.584;9.186;2023-02-28T13:47:36;8.07;;;7.38;;
27566;SDS011;15006;48.584;9.186;2023-02-28T13:52:54;7.32;;;6.93;;
27566;SDS011;15006;48.584;9.186;2023-02-28T13:55:54;7.15;;;6.57;;
27566;SDS011;15006;48.584;9.186;2023-02-28T14:07:19;7.40;;;6.90;;
27566;SDS011;15006;48.584;9.186;2023-02-28T14:10:06;7.18;;;6.78;;
27566;SDS011;15006;48.584;9.186;2023-02-28T14:15:46;7.22;;;6.45;;
27566;SDS011;15006;48.584;9.186;2023-02-28T14:18:29;8.57;;;7.22;;
27566;SDS011;15006;48.584;9.186;2023-02-28T14:23:35;6.80;;;6.20;;
27566;SDS011;15006;48.584;9.186;2023-02-28T14:32:03;6.95;;;6.25;;
27566;SDS011;15006;48.584;9.186;2023-02-28T14:34:53;6.43;;;5.95;;
27566;SDS011;15006;48.584;9.186;2023-02-28T14:37:33;6.22;;;5.85;;
27566;SDS011;15006;48.584;9.186;2023-02-28T14:40:03;7.35;;;6.70;;
27566;SDS011;15006;48.584;9.186;2023-02-28T14:44:58;6.88;;;6.32;;
27566;SDS011;15006;48.584;9.186;2023-02-28T14:47:28;8.93;;;6.38;;
27566;SDS011;15006;48.584;9.186;2023-02-28T14:50:22;6.78;;;6.28;;
27566;SDS011;15006;48.584;9.186;2023-02-28T14:52:53;6.97;;;6.47;;
27566;SDS011;15006;48.584;9.186;2023-02-28T14:55:23;7.25;;;6.68;;
27566;SDS011;15006;48.584;9.186;2023-02-28T14:57:57;12.85;;;6.75;;
27566;SDS011;15006;48.584;9.186;2023-02-28T15:00:33;6.75;;;6.32;;
27566;SDS011;15006;48.584;9.186;2023-02-28T15:03:17;7.13;;;6.60;;
27566;SDS011;15006;48.584;9.186;2023-02-28T15:05:51;7.22;;;6.63;;
27566;SDS011;15006;48.584;9.186;2023-02-28T15:08:29;7.38;;;6.80;;
27566;SDS011;15006;48.584;9.186;2023-02-28T15:11:04;7.38;;;6.90;;
27566;SDS011;15006;48.584;9.186;2023-02-28T15:18:55;7.55;;;6.90;;
27566;SDS011;15006;48.584;9.186;2023-02-28T15:21:27;6.78;;;6.32;;
27566;SDS011;15006;48.584;9.186;2023-02-28T15:26:27;6.97;;;6.47;;
27566;SDS011;15006;48.584;9.186;2023-02-28T15:28:59;6.93;;;6.43;;
27566;SDS011;15006;48.584;9.186;2023-02-28T15:31:34;7.32;;;6.75;;
27566;SDS011;15006;48.584;9.186;2023-02-28T15:34:06;7.72;;;7.10;;
27566;SDS011;15006;48.584;9.186;2023-02-28T15:36:58;8.48;;;7.68;;
27566;SDS011;15006;48.584;9.186;2023-02-28T15:39:25;8.23;;;7.60;;
27566;SDS011;15006;48.584;9.186;2023-02-28T15:42:09;8.15;;;7.55;;
27566;SDS011;15006;48.584;9.186;2023-02-28T15:44:47;10.32;;;7.38;;
27566;SDS011;15006;48.584;9.186;2023-02-28T15:47:26;7.63;;;7.03;;
27566;SDS011;15006;48.584;9.186;2023-02-28T15:50:02;7.55;;;7.05;;
27566;SDS011;15006;48.584;9.186;2023-02-28T15:52:40;8.07;;;7.43;;
27566;SDS011;15006;48.584;9.186;2023-02-28T15:55:17;8.35;;;7.70;;
27566;SDS011;15006;48.584;9.186;2023-02-28T15:57:48;8.75;;;8.05;;
27566;SDS011;15006;48.584;9.186;2023-02-28T16:00:21;8.40;;;7.70;;
27566;SDS011;15006;48.584;9.186;2023-02-28T16:02:49;10.15;;;8.02;;
27566;SDS011;15006;48.584;9.186;2023-02-28T16:05:21;8.85;;;8.05;;
27566;SDS011;15006;48.584;9.186;2023-02-28T16:07:57;9.75;;;7.97;;
27566;SDS011;15006;48.584;9.186;2023-02-28T16:10:43;9.05;;;8.25;;
27566;SDS011;15006;48.584;9.186;2023-02-28T16:13:09;8.48;;;7.88;;
27566;SDS011;15006;48.584;9.186;2023-02-28T16:15:41;8.68;;;8.07;;
27566;SDS011;15006;48.584;9.186;2023-02-28T16:18:10;8.80;;;7.90;;
27566;SDS011;15006;48.584;9.186;2023-02-28T16:20:37;10.50;;;8.63;;
27566;SDS011;15006;48.584;9.186;2023-02-28T16:23:03;9.50;;;8.70;;
27566;SDS011;15006;48.584;9.186;2023-02-28T16:25:39;10.00;;;9.05;;
27566;SDS011;15006;48.584;9.186;2023-02-28T16:28:09;9.75;;;8.75;;
27566;SDS011;15006;48.584;9.186;2023-02-28T16:30:44;10.27;;;9.32;;
27566;SDS011;15006;48.584;9.186;2023-02-28T16:33:10;9.35;;;8.55;;
27566;SDS011;15006;48.584;9.186;2023-02-28T16:35:36;11.15;;;9.10;;
27566;SDS011;15006;48.584;9.186;2023-02-28T16:38:02;10.20;;;9.20;;
27566;SDS011;15006;48.584;9.186;2023-02-28T16:40:29;9.88;;;8.98;;
27566;SDS011;15006;48.584;9.186;2023-02-28T16:43:01;10.82;;;9.73;;
27566;SDS011;15006;48.584;9.186;2023-02-28T16:45:34;11.13;;;10.02;;
27566;SDS011;15006;48.584;9.186;2023-02-28T16:48:00;10.80;;;9.70;;
27566;SDS011;15006;48.584;9.186;2023-02-28T16:50:28;11.07;;;9.75;;
27566;SDS011;15006;48.584;9.186;2023-02-28T16:52:55;11.25;;;10.15;;
27566;SDS011;15006;48.584;9.186;2023-02-28T16:55:22;13.00;;;10.07;;
27566;SDS011;15006;48.584;9.186;2023-02-28T16:57:53;11.88;;;10.63;;
27566;SDS011;15006;48.584;9.186;2023-02-28T17:00:24;12.15;;;10.95;;
27566;SDS011;15006;48.584;9.186;2023-02-28T17:02:52;13.48;;;10.45;;
27566;SDS011;15006;48.584;9.186;2023-02-28T17:05:19;10.75;;;9.63;;
27566;SDS011;15006;48.584;9.186;2023-02-28T17:07:46;12.15;;;10.85;;
27566;SDS011;15006;48.584;9.186;2023-02-28T17:10:14;14.90;;;11.65;;
27566;SDS011;15006;48.584;9.186;2023-02-28T17:12:46;13.35;;;11.20;;
27566;SDS011;15006;48.584;9.186;2023-02-28T17:15:16;12.18;;;10.90;;
27566;SDS011;15006;48.584;9.186;2023-02-28T17:17:45;13.57;;;12.00;;
27566;SDS011;15006;48.584;9.186;2023-02-28T17:20:15;16.20;;;12.00;;
27566;SDS011;15006;48.584;9.186;2023-02-28T17:22:48;14.45;;;12.00;;
27566;SDS011;15006;48.584;9.186;2023-02-28T17:25:16;13.55;;;12.13;;
27566;SDS011;15006;48.584;9.186;2023-02-28T17:27:43;13.27;;;11.90;;
27566;SDS011;15006;48.584;9.186;2023-02-28T17:30:23;14.75;;;12.32;;
27566;SDS011;15006;48.584;9.186;2023-02-28T17:32:53;16.70;;;12.40;;